sensor_id;sensor_type;location;lat;lon;timestamp;P1;durP1;ratioP1;P2;durP2;ratioP2
68178;SDS011;69812;42.632;23.440;2023-05-20T00:01:22;18.38;;;8.50;;
68178;SDS011;69812;42.632;23.440;2023-05-20T00:03:50;17.85;;;8.25;;
68178;SDS011;69812;42.632;23.440;2023-05-20T00:06:15;22.55;;;8.45;;
68178;SDS011;69812;42.632;23.440;2023-05-20T00:08:43;17.65;;;8.23;;
68178;SDS011;69812;42.632;23.440;2023-05-20T00:11:08;16.00;;;8.75;;
68178;SDS011;69812;42.632;23.440;2023-05-20T00:13:36;18.10;;;8.32;;
68178;SDS011;69812;42.632;23.440;2023-05-20T00:16:03;18.48;;;9.98;;
68178;SDS011;69812;42.632;23.440;2023-05-20T00:18:28;17.58;;;8.48;;
68178;SDS011;69812;42.632;23.440;2023-05-20T00:20:54;19.75;;;8.48;;
68178;SDS011;69812;42.632;23.440;2023-05-20T00:23:22;17.38;;;8.77;;
68178;SDS011;69812;42.632;23.440;2023-05-20T00:25:48;17.30;;;7.97;;
68178;SDS011;69812;42.632;23.440;2023-05-20T00:28:14;17.17;;;8.45;;
68178;SDS011;69812;42.632;23.440;2023-05-20T00:30:39;18.92;;;9.80;;
68178;SDS011;69812;42.632;23.440;2023-05-20T00:33:07;17.05;;;8.23;;
68178;SDS011;69812;42.632;23.440;2023-05-20T00:35:33;16.90;;;8.38;;
68178;SDS011;69812;42.632;23.440;2023-05-20T00:38:01;18.55;;;9.45;;
68178;SDS011;69812;42.632;23.440;2023-05-20T00:40:26;21.02;;;10.60;;
68178;SDS011;69812;42.632;23.440;2023-05-20T00:42:51;19.92;;;10.07;;
68178;SDS011;69812;42.632;23.440;2023-05-20T00:45:17;18.05;;;9.35;;
68178;SDS011;69812;42.632;23.440;2023-05-20T00:47:44;20.00;;;9.85;;
68178;SDS011;69812;42.632;23.440;2023-05-20T00:50:10;29.10;;;10.13;;
68178;SDS011;69812;42.632;23.440;2023-05-20T00:52:35;17.92;;;8.38;;
68178;SDS011;69812;42.632;23.440;2023-05-20T00:55:02;18.33;;;9.07;;
68178;SDS011;69812;42.632;23.440;2023-05-20T00:57:28;19.98;;;8.85;;
68178;SDS011;69812;42.632;23.440;2023-05-20T00:59:54;18.67;;;9.27;;
68178;SDS011;69812;42.632;23.440;2023-05-20T01:02:27;20.23;;;8.02;;
68178;SDS011;69812;42.632;23.440;2023-05-20T01:04:52;18.38;;;8.80;;
68178;SDS011;69812;42.632;23.440;2023-05-20T01:07:20;19.35;;;9.23;;
68178;SDS011;69812;42.632;23.440;2023-05-20T01:09:46;20.80;;;9.27;;
68178;SDS011;69812;42.632;23.440;2023-05-20T01:12:27;21.23;;;10.27;;
68178;SDS011;69812;42.632;23.440;2023-05-20T01:15:06;23.08;;;9.85;;
68178;SDS011;69812;42.632;23.440;2023-05-20T01:17:35;18.27;;;8.70;;
68178;SDS011;69812;42.632;23.440;2023-05-20T01:20:03;17.25;;;8.40;;
68178;SDS011;69812;42.632;23.440;2023-05-20T01:22:35;21.73;;;10.02;;
68178;SDS011;69812;42.632;23.440;2023-05-20T01:25:01;23.52;;;10.68;;
68178;SDS011;69812;42.632;23.440;2023-05-20T01:27:27;20.10;;;9.68;;
68178;SDS011;69812;42.632;23.440;2023-05-20T01:29:54;18.40;;;9.25;;
68178;SDS011;69812;42.632;23.440;2023-05-20T01:32:22;16.92;;;8.63;;
68178;SDS011;69812;42.632;23.440;2023-05-20T01:34:51;20.10;;;8.93;;
68178;SDS011;69812;42.632;23.440;2023-05-20T01:37:20;19.58;;;9.13;;
68178;SDS011;69812;42.632;23.440;2023-05-20T01:39:48;17.90;;;8.52;;
68178;SDS011;69812;42.632;23.440;2023-05-20T01:42:14;20.15;;;9.15;;
68178;SDS011;69812;42.632;23.440;2023-05-20T01:44:41;17.35;;;8.73;;
68178;SDS011;69812;42.632;23.440;2023-05-20T01:47:07;18.15;;;9.05;;
68178;SDS011;69812;42.632;23.440;2023-05-20T01:49:32;20.88;;;9.15;;
68178;SDS011;69812;42.632;23.440;2023-05-20T01:51:58;18.60;;;8.77;;
68178;SDS011;69812;42.632;23.440;2023-05-20T01:54:23;17.77;;;8.50;;
68178;SDS011;69812;42.632;23.440;2023-05-20T01:56:49;15.70;;;8.02;;
68178;SDS011;69812;42.632;23.440;2023-05-20T01:59:14;19.52;;;9.80;;
68178;SDS011;69812;42.632;23.440;2023-05-20T02:01:40;18.33;;;9.00;;
68178;SDS011;69812;42.632;23.440;2023-05-20T02:04:05;21.85;;;9.65;;
68178;SDS011;69812;42.632;23.440;2023-05-20T02:06:31;21.65;;;9.88;;
68178;SDS011;69812;42.632;23.440;2023-05-20T02:08:56;18.42;;;8.70;;
68178;SDS011;69812;42.632;23.440;2023-05-20T02:11:21;22.23;;;9.25;;
68178;SDS011;69812;42.632;23.440;2023-05-20T02:13:48;18.42;;;9.45;;
68178;SDS011;69812;42.632;23.440;2023-05-20T02:16:14;17.27;;;8.40;;
68178;SDS011;69812;42.632;23.440;2023-05-20T02:18:39;23.27;;;8.80;;
68178;SDS011;69812;42.632;23.440;2023-05-20T02:21:06;18.58;;;8.95;;
68178;SDS011;69812;42.632;23.440;2023-05-20T02:23:32;16.50;;;8.52;;
68178;SDS011;69812;42.632;23.440;2023-05-20T02:25:57;22.45;;;11.85;;
68178;SDS011;69812;42.632;23.440;2023-05-20T02:28:22;21.10;;;10.70;;
68178;SDS011;69812;42.632;23.440;2023-05-20T02:30:48;17.83;;;9.07;;
68178;SDS011;69812;42.632;23.440;2023-05-20T02:33:16;17.48;;;8.15;;
68178;SDS011;69812;42.632;23.440;2023-05-20T02:35:43;17.63;;;8.18;;
68178;SDS011;69812;42.632;23.440;2023-05-20T02:38:09;17.10;;;8.18;;
68178;SDS011;69812;42.632;23.440;2023-05-20T02:40:35;16.98;;;8.45;;
68178;SDS011;69812;42.632;23.440;2023-05-20T02:43:00;17.38;;;7.90;;
68178;SDS011;69812;42.632;23.440;2023-05-20T02:45:25;16.05;;;8.40;;
68178;SDS011;69812;42.632;23.440;2023-05-20T02:47:51;17.60;;;8.23;;
68178;SDS011;69812;42.632;23.440;2023-05-20T02:50:16;18.65;;;8.23;;
68178;SDS011;69812;42.632;23.440;2023-05-20T02:52:42;17.67;;;8.38;;
68178;SDS011;69812;42.632;23.440;2023-05-20T02:55:07;18.65;;;8.07;;
68178;SDS011;69812;42.632;23.440;2023-05-20T02:57:34;15.38;;;8.20;;
68178;SDS011;69812;42.632;23.440;2023-05-20T03:00:02;19.27;;;9.30;;
68178;SDS011;69812;42.632;23.440;2023-05-20T03:02:30;18.65;;;8.77;;
68178;SDS011;69812;42.632;23.440;2023-05-20T03:04:55;17.38;;;8.90;;
68178;SDS011;69812;42.632;23.440;2023-05-20T03:07:21;19.38;;;8.45;;
68178;SDS011;69812;42.632;23.440;2023-05-20T03:09:46;19.27;;;8.65;;
68178;SDS011;69812;42.632;23.440;2023-05-20T03:12:17;20.08;;;9.23;;
68178;SDS011;69812;42.632;23.440;2023-05-20T03:14:42;19.05;;;9.25;;
68178;SDS011;69812;42.632;23.440;2023-05-20T03:17:08;21.45;;;10.07;;
68178;SDS011;69812;42.632;23.440;2023-05-20T03:19:36;24.63;;;9.90;;
68178;SDS011;69812;42.632;23.440;2023-05-20T03:22:01;22.67;;;9.75;;
68178;SDS011;69812;42.632;23.440;2023-05-20T03:24:27;20.20;;;9.70;;
68178;SDS011;69812;42.632;23.440;2023-05-20T03:26:53;18.38;;;9.85;;
68178;SDS011;69812;42.632;23.440;2023-05-20T03:29:18;22.80;;;10.32;;
68178;SDS011;69812;42.632;23.440;2023-05-20T03:31:48;19.25;;;9.80;;
68178;SDS011;69812;42.632;23.440;2023-05-20T03:34:13;21.40;;;10.20;;
68178;SDS011;69812;42.632;23.440;2023-05-20T03:36:39;20.42;;;9.25;;
68178;SDS011;69812;42.632;23.440;2023-05-20T03:39:05;18.35;;;9.82;;
68178;SDS011;69812;42.632;23.440;2023-05-20T03:41:31;23.27;;;11.13;;
68178;SDS011;69812;42.632;23.440;2023-05-20T03:43:56;23.73;;;10.93;;
68178;SDS011;69812;42.632;23.440;2023-05-20T03:46:22;23.98;;;10.65;;
68178;SDS011;69812;42.632;23.440;2023-05-20T03:48:47;24.73;;;12.00;;
68178;SDS011;69812;42.632;23.440;2023-05-20T03:51:12;23.00;;;11.48;;
68178;SDS011;69812;42.632;23.440;2023-05-20T03:53:38;24.02;;;12.13;;
68178;SDS011;69812;42.632;23.440;2023-05-20T03:56:03;21.17;;;12.98;;
68178;SDS011;69812;42.632;23.440;2023-05-20T03:58:29;18.17;;;10.38;;
68178;SDS011;69812;42.632;23.440;2023-05-20T04:00:55;16.73;;;9.35;;
68178;SDS011;69812;42.632;23.440;2023-05-20T04:03:20;14.80;;;9.32;;
68178;SDS011;69812;42.632;23.440;2023-05-20T04:05:47;12.00;;;7.65;;
68178;SDS011;69812;42.632;23.440;2023-05-20T04:08:12;13.55;;;7.38;;
68178;SDS011;69812;42.632;23.440;2023-05-20T04:10:41;14.32;;;7.30;;
68178;SDS011;69812;42.632;23.440;2023-05-20T04:13:09;14.70;;;7.28;;
68178;SDS011;69812;42.632;23.440;2023-05-20T04:15:35;9.77;;;6.63;;
68178;SDS011;69812;42.632;23.440;2023-05-20T04:18:01;11.05;;;6.75;;
68178;SDS011;69812;42.632;23.440;2023-05-20T04:20:27;10.15;;;6.75;;
68178;SDS011;69812;42.632;23.440;2023-05-20T04:22:58;11.32;;;6.68;;
68178;SDS011;69812;42.632;23.440;2023-05-20T04:25:24;12.20;;;6.65;;
68178;SDS011;69812;42.632;23.440;2023-05-20T04:27:50;11.85;;;6.90;;
68178;SDS011;69812;42.632;23.440;2023-05-20T04:30:18;10.45;;;6.75;;
68178;SDS011;69812;42.632;23.440;2023-05-20T04:32:44;11.02;;;6.70;;
68178;SDS011;69812;42.632;23.440;2023-05-20T04:35:11;10.15;;;6.93;;
68178;SDS011;69812;42.632;23.440;2023-05-20T04:37:37;10.57;;;6.47;;
68178;SDS011;69812;42.632;23.440;2023-05-20T04:40:03;10.23;;;7.05;;
68178;SDS011;69812;42.632;23.440;2023-05-20T04:42:31;9.35;;;6.88;;
68178;SDS011;69812;42.632;23.440;2023-05-20T04:44:57;10.80;;;6.10;;
68178;SDS011;69812;42.632;23.440;2023-05-20T04:47:25;9.70;;;6.60;;
68178;SDS011;69812;42.632;23.440;2023-05-20T04:49:52;9.52;;;6.65;;
68178;SDS011;69812;42.632;23.440;2023-05-20T04:52:21;11.93;;;7.05;;
68178;SDS011;69812;42.632;23.440;2023-05-20T04:54:47;10.30;;;6.88;;
68178;SDS011;69812;42.632;23.440;2023-05-20T04:57:15;11.77;;;7.28;;
68178;SDS011;69812;42.632;23.440;2023-05-20T04:59:41;11.68;;;7.28;;
68178;SDS011;69812;42.632;23.440;2023-05-20T05:02:06;10.10;;;7.13;;
68178;SDS011;69812;42.632;23.440;2023-05-20T05:04:32;9.40;;;7.07;;
68178;SDS011;69812;42.632;23.440;2023-05-20T05:06:57;8.70;;;6.85;;
68178;SDS011;69812;42.632;23.440;2023-05-20T05:09:23;10.30;;;7.10;;
68178;SDS011;69812;42.632;23.440;2023-05-20T05:11:48;12.43;;;7.63;;
68178;SDS011;69812;42.632;23.440;2023-05-20T05:14:13;15.77;;;7.47;;
68178;SDS011;69812;42.632;23.440;2023-05-20T05:16:47;11.90;;;7.35;;
68178;SDS011;69812;42.632;23.440;2023-05-20T05:19:13;10.38;;;7.60;;
68178;SDS011;69812;42.632;23.440;2023-05-20T05:21:38;10.25;;;7.95;;
68178;SDS011;69812;42.632;23.440;2023-05-20T05:24:04;11.05;;;7.97;;
68178;SDS011;69812;42.632;23.440;2023-05-20T05:26:32;12.85;;;7.15;;
68178;SDS011;69812;42.632;23.440;2023-05-20T05:29:00;12.57;;;7.50;;
68178;SDS011;69812;42.632;23.440;2023-05-20T05:31:25;8.43;;;6.72;;
68178;SDS011;69812;42.632;23.440;2023-05-20T05:33:51;12.10;;;7.50;;
68178;SDS011;69812;42.632;23.440;2023-05-20T05:36:16;9.75;;;7.07;;
68178;SDS011;69812;42.632;23.440;2023-05-20T05:38:41;9.65;;;7.07;;
68178;SDS011;69812;42.632;23.440;2023-05-20T05:41:08;9.38;;;7.50;;
68178;SDS011;69812;42.632;23.440;2023-05-20T05:43:36;8.65;;;6.90;;
68178;SDS011;69812;42.632;23.440;2023-05-20T05:46:01;9.13;;;6.40;;
68178;SDS011;69812;42.632;23.440;2023-05-20T05:48:27;11.02;;;7.38;;
68178;SDS011;69812;42.632;23.440;2023-05-20T05:50:52;9.65;;;6.47;;
68178;SDS011;69812;42.632;23.440;2023-05-20T05:53:17;8.70;;;6.38;;
68178;SDS011;69812;42.632;23.440;2023-05-20T05:55:44;10.02;;;6.18;;
68178;SDS011;69812;42.632;23.440;2023-05-20T05:58:10;8.18;;;6.53;;
68178;SDS011;69812;42.632;23.440;2023-05-20T06:00:36;9.00;;;6.03;;
68178;SDS011;69812;42.632;23.440;2023-05-20T06:03:01;8.35;;;6.00;;
68178;SDS011;69812;42.632;23.440;2023-05-20T06:05:27;7.97;;;6.78;;
68178;SDS011;69812;42.632;23.440;2023-05-20T06:07:52;10.70;;;6.32;;
68178;SDS011;69812;42.632;23.440;2023-05-20T06:10:17;7.63;;;6.07;;
68178;SDS011;69812;42.632;23.440;2023-05-20T06:12:43;9.18;;;6.90;;
68178;SDS011;69812;42.632;23.440;2023-05-20T06:15:08;8.93;;;6.10;;
68178;SDS011;69812;42.632;23.440;2023-05-20T06:17:34;8.45;;;7.25;;
68178;SDS011;69812;42.632;23.440;2023-05-20T06:20:00;10.63;;;8.15;;
68178;SDS011;69812;42.632;23.440;2023-05-20T06:22:27;10.20;;;8.95;;
68178;SDS011;69812;42.632;23.440;2023-05-20T06:27:18;10.32;;;7.72;;
68178;SDS011;69812;42.632;23.440;2023-05-20T06:29:44;9.05;;;7.05;;
68178;SDS011;69812;42.632;23.440;2023-05-20T06:34:35;7.50;;;6.40;;
68178;SDS011;69812;42.632;23.440;2023-05-20T06:39:26;6.95;;;5.05;;
68178;SDS011;69812;42.632;23.440;2023-05-20T06:44:17;9.77;;;7.15;;
68178;SDS011;69812;42.632;23.440;2023-05-20T06:46:43;8.38;;;6.55;;
68178;SDS011;69812;42.632;23.440;2023-05-20T06:49:08;8.45;;;6.28;;
68178;SDS011;69812;42.632;23.440;2023-05-20T06:51:34;7.78;;;6.45;;
68178;SDS011;69812;42.632;23.440;2023-05-20T06:56:25;9.88;;;6.22;;
68178;SDS011;69812;42.632;23.440;2023-05-20T07:01:15;8.90;;;5.53;;
68178;SDS011;69812;42.632;23.440;2023-05-20T07:03:41;7.82;;;5.32;;
68178;SDS011;69812;42.632;23.440;2023-05-20T07:06:08;9.52;;;6.80;;
68178;SDS011;69812;42.632;23.440;2023-05-20T07:10:59;6.13;;;5.40;;
68178;SDS011;69812;42.632;23.440;2023-05-20T07:15:50;7.10;;;5.80;;
68178;SDS011;69812;42.632;23.440;2023-05-20T07:18:18;8.35;;;5.38;;
68178;SDS011;69812;42.632;23.440;2023-05-20T07:20:44;6.90;;;5.63;;
68178;SDS011;69812;42.632;23.440;2023-05-20T07:23:09;6.32;;;5.18;;
68178;SDS011;69812;42.632;23.440;2023-05-20T07:25:35;6.82;;;5.43;;
68178;SDS011;69812;42.632;23.440;2023-05-20T07:28:00;8.20;;;5.90;;
68178;SDS011;69812;42.632;23.440;2023-05-20T07:30:28;6.18;;;5.57;;
68178;SDS011;69812;42.632;23.440;2023-05-20T07:32:55;5.82;;;5.20;;
68178;SDS011;69812;42.632;23.440;2023-05-20T07:35:21;6.40;;;5.40;;
68178;SDS011;69812;42.632;23.440;2023-05-20T07:37:48;6.93;;;5.30;;
68178;SDS011;69812;42.632;23.440;2023-05-20T07:40:14;7.10;;;5.50;;
68178;SDS011;69812;42.632;23.440;2023-05-20T07:42:39;7.15;;;5.88;;
68178;SDS011;69812;42.632;23.440;2023-05-20T07:47:30;7.22;;;5.82;;
68178;SDS011;69812;42.632;23.440;2023-05-20T07:49:56;6.93;;;5.75;;
68178;SDS011;69812;42.632;23.440;2023-05-20T07:52:22;7.18;;;5.97;;
68178;SDS011;69812;42.632;23.440;2023-05-20T07:54:50;6.63;;;5.93;;
68178;SDS011;69812;42.632;23.440;2023-05-20T07:57:17;8.13;;;6.10;;
68178;SDS011;69812;42.632;23.440;2023-05-20T07:59:42;6.00;;;5.40;;
68178;SDS011;69812;42.632;23.440;2023-05-20T08:02:08;6.18;;;5.38;;
68178;SDS011;69812;42.632;23.440;2023-05-20T08:07:55;6.88;;;5.50;;
68178;SDS011;69812;42.632;23.440;2023-05-20T08:10:21;6.45;;;5.18;;
68178;SDS011;69812;42.632;23.440;2023-05-20T08:15:14;7.85;;;5.80;;
68178;SDS011;69812;42.632;23.440;2023-05-20T08:20:05;7.53;;;5.57;;
68178;SDS011;69812;42.632;23.440;2023-05-20T08:22:32;6.35;;;5.10;;
68178;SDS011;69812;42.632;23.440;2023-05-20T08:24:57;7.60;;;4.72;;
68178;SDS011;69812;42.632;23.440;2023-05-20T08:27:25;8.80;;;5.55;;
68178;SDS011;69812;42.632;23.440;2023-05-20T08:29:50;7.60;;;5.38;;
68178;SDS011;69812;42.632;23.440;2023-05-20T08:32:18;6.63;;;4.78;;
68178;SDS011;69812;42.632;23.440;2023-05-20T08:34:44;7.90;;;5.93;;
68178;SDS011;69812;42.632;23.440;2023-05-20T08:37:09;7.13;;;5.63;;
68178;SDS011;69812;42.632;23.440;2023-05-20T08:39:37;9.98;;;5.65;;
68178;SDS011;69812;42.632;23.440;2023-05-20T08:42:03;9.73;;;5.55;;
68178;SDS011;69812;42.632;23.440;2023-05-20T08:44:30;7.57;;;5.05;;
68178;SDS011;69812;42.632;23.440;2023-05-20T08:46:57;7.07;;;4.80;;
68178;SDS011;69812;42.632;23.440;2023-05-20T08:49:23;8.82;;;5.40;;
68178;SDS011;69812;42.632;23.440;2023-05-20T08:51:48;10.48;;;5.25;;
68178;SDS011;69812;42.632;23.440;2023-05-20T08:54:13;7.90;;;5.43;;
68178;SDS011;69812;42.632;23.440;2023-05-20T08:56:42;9.93;;;6.00;;
68178;SDS011;69812;42.632;23.440;2023-05-20T08:59:08;8.10;;;5.38;;
68178;SDS011;69812;42.632;23.440;2023-05-20T09:01:35;13.43;;;6.00;;
68178;SDS011;69812;42.632;23.440;2023-05-20T09:04:05;8.40;;;5.63;;
68178;SDS011;69812;42.632;23.440;2023-05-20T09:09:06;9.35;;;4.93;;
68178;SDS011;69812;42.632;23.440;2023-05-20T09:11:34;9.15;;;5.57;;
68178;SDS011;69812;42.632;23.440;2023-05-20T09:13:59;11.57;;;5.30;;
68178;SDS011;69812;42.632;23.440;2023-05-20T09:16:25;8.02;;;5.00;;
68178;SDS011;69812;42.632;23.440;2023-05-20T09:18:53;9.23;;;5.65;;
68178;SDS011;69812;42.632;23.440;2023-05-20T09:21:24;9.32;;;5.13;;
68178;SDS011;69812;42.632;23.440;2023-05-20T09:23:53;10.27;;;5.50;;
68178;SDS011;69812;42.632;23.440;2023-05-20T09:26:21;10.32;;;5.95;;
68178;SDS011;69812;42.632;23.440;2023-05-20T09:28:48;9.93;;;5.35;;
68178;SDS011;69812;42.632;23.440;2023-05-20T09:31:15;9.57;;;5.28;;
68178;SDS011;69812;42.632;23.440;2023-05-20T09:33:40;9.32;;;4.72;;
68178;SDS011;69812;42.632;23.440;2023-05-20T09:36:07;10.27;;;5.57;;
68178;SDS011;69812;42.632;23.440;2023-05-20T09:38:35;9.63;;;5.28;;
68178;SDS011;69812;42.632;23.440;2023-05-20T09:41:21;7.20;;;4.53;;
68178;SDS011;69812;42.632;23.440;2023-05-20T09:43:49;6.15;;;4.45;;
68178;SDS011;69812;42.632;23.440;2023-05-20T09:46:16;6.72;;;4.25;;
68178;SDS011;69812;42.632;23.440;2023-05-20T09:48:43;10.55;;;5.10;;
68178;SDS011;69812;42.632;23.440;2023-05-20T09:51:08;9.55;;;4.93;;
68178;SDS011;69812;42.632;23.440;2023-05-20T09:53:35;8.65;;;5.90;;
68178;SDS011;69812;42.632;23.440;2023-05-20T09:56:01;8.38;;;4.85;;
68178;SDS011;69812;42.632;23.440;2023-05-20T09:58:27;7.13;;;4.75;;
68178;SDS011;69812;42.632;23.440;2023-05-20T10:03:20;8.02;;;4.70;;
68178;SDS011;69812;42.632;23.440;2023-05-20T10:05:51;7.20;;;5.10;;
68178;SDS011;69812;42.632;23.440;2023-05-20T10:13:37;9.93;;;5.15;;
68178;SDS011;69812;42.632;23.440;2023-05-20T10:18:59;5.88;;;4.28;;
68178;SDS011;69812;42.632;23.440;2023-05-20T10:21:36;6.55;;;4.53;;
68178;SDS011;69812;42.632;23.440;2023-05-20T10:24:05;7.85;;;4.07;;
68178;SDS011;69812;42.632;23.440;2023-05-20T10:26:35;5.63;;;3.80;;
68178;SDS011;69812;42.632;23.440;2023-05-20T10:29:15;9.57;;;4.82;;
68178;SDS011;69812;42.632;23.440;2023-05-20T10:31:47;6.88;;;4.40;;
68178;SDS011;69812;42.632;23.440;2023-05-20T10:34:16;7.97;;;3.95;;
68178;SDS011;69812;42.632;23.440;2023-05-20T10:39:17;4.95;;;3.38;;
68178;SDS011;69812;42.632;23.440;2023-05-20T10:41:43;5.10;;;3.35;;
68178;SDS011;69812;42.632;23.440;2023-05-20T10:44:08;6.53;;;3.53;;
68178;SDS011;69812;42.632;23.440;2023-05-20T10:46:34;6.25;;;3.42;;
68178;SDS011;69812;42.632;23.440;2023-05-20T10:49:02;6.85;;;4.20;;
68178;SDS011;69812;42.632;23.440;2023-05-20T10:51:34;7.22;;;4.07;;
68178;SDS011;69812;42.632;23.440;2023-05-20T10:54:01;6.40;;;4.55;;
68178;SDS011;69812;42.632;23.440;2023-05-20T10:56:26;6.22;;;3.63;;
68178;SDS011;69812;42.632;23.440;2023-05-20T10:58:52;7.97;;;4.55;;
68178;SDS011;69812;42.632;23.440;2023-05-20T11:01:21;8.70;;;4.93;;
68178;SDS011;69812;42.632;23.440;2023-05-20T11:03:51;6.88;;;4.00;;
68178;SDS011;69812;42.632;23.440;2023-05-20T11:06:24;5.97;;;4.60;;
68178;SDS011;69812;42.632;23.440;2023-05-20T11:08:52;6.95;;;4.00;;
68178;SDS011;69812;42.632;23.440;2023-05-20T11:11:18;5.78;;;3.58;;
68178;SDS011;69812;42.632;23.440;2023-05-20T11:13:44;6.65;;;4.38;;
68178;SDS011;69812;42.632;23.440;2023-05-20T11:16:14;6.70;;;4.30;;
68178;SDS011;69812;42.632;23.440;2023-05-20T11:18:40;5.63;;;4.10;;
68178;SDS011;69812;42.632;23.440;2023-05-20T11:21:05;6.45;;;4.50;;
68178;SDS011;69812;42.632;23.440;2023-05-20T11:23:30;6.90;;;4.03;;
68178;SDS011;69812;42.632;23.440;2023-05-20T11:25:56;7.72;;;4.95;;
68178;SDS011;69812;42.632;23.440;2023-05-20T11:28:22;7.00;;;4.10;;
68178;SDS011;69812;42.632;23.440;2023-05-20T11:30:48;9.02;;;4.00;;
68178;SDS011;69812;42.632;23.440;2023-05-20T11:33:15;8.80;;;3.72;;
68178;SDS011;69812;42.632;23.440;2023-05-20T11:35:45;7.22;;;4.95;;
68178;SDS011;69812;42.632;23.440;2023-05-20T11:38:11;5.38;;;3.85;;
68178;SDS011;69812;42.632;23.440;2023-05-20T11:40:36;6.78;;;3.80;;
68178;SDS011;69812;42.632;23.440;2023-05-20T11:43:07;7.00;;;4.38;;
68178;SDS011;69812;42.632;23.440;2023-05-20T11:45:42;6.60;;;4.15;;
68178;SDS011;69812;42.632;23.440;2023-05-20T11:48:09;7.10;;;3.95;;
68178;SDS011;69812;42.632;23.440;2023-05-20T11:50:37;6.68;;;4.55;;
68178;SDS011;69812;42.632;23.440;2023-05-20T11:53:14;8.63;;;4.05;;
68178;SDS011;69812;42.632;23.440;2023-05-20T11:58:19;6.38;;;4.28;;
68178;SDS011;69812;42.632;23.440;2023-05-20T12:00:48;6.43;;;4.03;;
68178;SDS011;69812;42.632;23.440;2023-05-20T12:03:13;7.47;;;4.60;;
68178;SDS011;69812;42.632;23.440;2023-05-20T12:05:41;7.20;;;4.55;;
68178;SDS011;69812;42.632;23.440;2023-05-20T12:08:07;7.50;;;4.68;;
68178;SDS011;69812;42.632;23.440;2023-05-20T12:10:33;7.28;;;4.85;;
68178;SDS011;69812;42.632;23.440;2023-05-20T12:12:59;7.15;;;3.90;;
68178;SDS011;69812;42.632;23.440;2023-05-20T12:15:24;4.22;;;2.60;;
68178;SDS011;69812;42.632;23.440;2023-05-20T12:17:51;4.07;;;2.65;;
68178;SDS011;69812;42.632;23.440;2023-05-20T12:20:18;5.47;;;2.90;;
68178;SDS011;69812;42.632;23.440;2023-05-20T12:22:46;4.25;;;2.72;;
68178;SDS011;69812;42.632;23.440;2023-05-20T12:25:12;3.50;;;2.33;;
68178;SDS011;69812;42.632;23.440;2023-05-20T12:27:39;4.97;;;2.33;;
68178;SDS011;69812;42.632;23.440;2023-05-20T12:30:06;6.90;;;2.80;;
68178;SDS011;69812;42.632;23.440;2023-05-20T12:32:32;5.20;;;3.33;;
68178;SDS011;69812;42.632;23.440;2023-05-20T12:34:57;6.15;;;3.40;;
68178;SDS011;69812;42.632;23.440;2023-05-20T12:37:23;5.60;;;3.08;;
68178;SDS011;69812;42.632;23.440;2023-05-20T12:39:51;7.05;;;2.97;;
68178;SDS011;69812;42.632;23.440;2023-05-20T12:42:18;7.35;;;3.70;;
68178;SDS011;69812;42.632;23.440;2023-05-20T12:44:44;8.25;;;3.83;;
68178;SDS011;69812;42.632;23.440;2023-05-20T12:47:09;6.80;;;3.33;;
68178;SDS011;69812;42.632;23.440;2023-05-20T12:49:34;6.57;;;3.47;;
68178;SDS011;69812;42.632;23.440;2023-05-20T12:52:00;6.55;;;3.25;;
68178;SDS011;69812;42.632;23.440;2023-05-20T12:54:25;6.47;;;3.65;;
68178;SDS011;69812;42.632;23.440;2023-05-20T12:59:17;5.28;;;3.42;;
68178;SDS011;69812;42.632;23.440;2023-05-20T13:01:43;5.72;;;3.72;;
68178;SDS011;69812;42.632;23.440;2023-05-20T13:04:08;6.47;;;4.22;;
68178;SDS011;69812;42.632;23.440;2023-05-20T13:06:33;4.80;;;3.33;;
68178;SDS011;69812;42.632;23.440;2023-05-20T13:09:01;6.97;;;3.45;;
68178;SDS011;69812;42.632;23.440;2023-05-20T13:11:29;5.28;;;3.38;;
68178;SDS011;69812;42.632;23.440;2023-05-20T13:13:54;7.25;;;3.47;;
68178;SDS011;69812;42.632;23.440;2023-05-20T13:16:23;7.40;;;3.40;;
68178;SDS011;69812;42.632;23.440;2023-05-20T13:18:49;5.40;;;4.25;;
68178;SDS011;69812;42.632;23.440;2023-05-20T13:21:14;7.40;;;4.45;;
68178;SDS011;69812;42.632;23.440;2023-05-20T13:23:40;10.25;;;5.03;;
68178;SDS011;69812;42.632;23.440;2023-05-20T13:26:06;7.13;;;4.25;;
68178;SDS011;69812;42.632;23.440;2023-05-20T13:28:32;5.78;;;4.07;;
68178;SDS011;69812;42.632;23.440;2023-05-20T13:30:57;6.25;;;3.97;;
68178;SDS011;69812;42.632;23.440;2023-05-20T13:33:23;7.70;;;3.45;;
68178;SDS011;69812;42.632;23.440;2023-05-20T13:35:50;5.88;;;3.58;;
68178;SDS011;69812;42.632;23.440;2023-05-20T13:38:18;7.72;;;3.97;;
68178;SDS011;69812;42.632;23.440;2023-05-20T13:40:43;6.80;;;4.03;;
68178;SDS011;69812;42.632;23.440;2023-05-20T13:43:09;6.25;;;4.20;;
68178;SDS011;69812;42.632;23.440;2023-05-20T13:45:34;8.00;;;4.28;;
68178;SDS011;69812;42.632;23.440;2023-05-20T13:48:00;9.18;;;4.47;;
68178;SDS011;69812;42.632;23.440;2023-05-20T13:50:26;6.30;;;4.45;;
68178;SDS011;69812;42.632;23.440;2023-05-20T13:52:51;6.80;;;4.05;;
68178;SDS011;69812;42.632;23.440;2023-05-20T13:55:16;6.38;;;4.20;;
68178;SDS011;69812;42.632;23.440;2023-05-20T13:57:42;6.65;;;4.63;;
68178;SDS011;69812;42.632;23.440;2023-05-20T14:00:10;7.93;;;5.22;;
68178;SDS011;69812;42.632;23.440;2023-05-20T14:02:35;9.18;;;5.30;;
68178;SDS011;69812;42.632;23.440;2023-05-20T14:05:01;6.90;;;4.22;;
68178;SDS011;69812;42.632;23.440;2023-05-20T14:07:27;6.40;;;4.72;;
68178;SDS011;69812;42.632;23.440;2023-05-20T14:09:52;8.00;;;4.18;;
68178;SDS011;69812;42.632;23.440;2023-05-20T14:12:18;6.97;;;4.60;;
68178;SDS011;69812;42.632;23.440;2023-05-20T14:14:43;9.82;;;4.93;;
68178;SDS011;69812;42.632;23.440;2023-05-20T14:17:09;7.38;;;4.63;;
68178;SDS011;69812;42.632;23.440;2023-05-20T14:19:34;9.32;;;5.38;;
68178;SDS011;69812;42.632;23.440;2023-05-20T14:22:00;7.28;;;4.78;;
68178;SDS011;69812;42.632;23.440;2023-05-20T14:24:26;8.77;;;4.90;;
68178;SDS011;69812;42.632;23.440;2023-05-20T14:26:51;7.07;;;4.63;;
68178;SDS011;69812;42.632;23.440;2023-05-20T14:29:17;7.20;;;4.90;;
68178;SDS011;69812;42.632;23.440;2023-05-20T14:31:42;8.05;;;4.93;;
68178;SDS011;69812;42.632;23.440;2023-05-20T14:34:10;7.70;;;4.63;;
68178;SDS011;69812;42.632;23.440;2023-05-20T14:36:36;8.75;;;5.25;;
68178;SDS011;69812;42.632;23.440;2023-05-20T14:39:02;6.82;;;5.10;;
68178;SDS011;69812;42.632;23.440;2023-05-20T14:41:27;6.45;;;4.68;;
68178;SDS011;69812;42.632;23.440;2023-05-20T14:43:53;8.30;;;4.72;;
68178;SDS011;69812;42.632;23.440;2023-05-20T14:46:19;10.52;;;5.07;;
68178;SDS011;69812;42.632;23.440;2023-05-20T14:48:45;7.32;;;4.78;;
68178;SDS011;69812;42.632;23.440;2023-05-20T14:51:10;8.10;;;5.13;;
68178;SDS011;69812;42.632;23.440;2023-05-20T14:53:36;6.35;;;4.35;;
68178;SDS011;69812;42.632;23.440;2023-05-20T14:56:01;6.82;;;4.32;;
68178;SDS011;69812;42.632;23.440;2023-05-20T14:58:27;8.48;;;4.85;;
68178;SDS011;69812;42.632;23.440;2023-05-20T15:00:52;7.78;;;4.78;;
68178;SDS011;69812;42.632;23.440;2023-05-20T15:03:18;8.20;;;4.97;;
68178;SDS011;69812;42.632;23.440;2023-05-20T15:05:43;9.50;;;4.90;;
68178;SDS011;69812;42.632;23.440;2023-05-20T15:08:08;7.05;;;4.53;;
68178;SDS011;69812;42.632;23.440;2023-05-20T15:10:34;7.65;;;5.10;;
68178;SDS011;69812;42.632;23.440;2023-05-20T15:13:00;8.75;;;5.25;;
68178;SDS011;69812;42.632;23.440;2023-05-20T15:15:25;8.27;;;5.00;;